Dubbo City Regional Airport


Codes: YSDU/DBO
Name: Dubbo City Regional Airport
City: Dubbo
Country: Australia
Elevation: 935 ft.
Website:
Wikipedia:

Photos at Dubbo City Regional Airport


   Photos courtesy of SpottingLog. You can add your own sightings and photos by signing up for a free trial today.



No photos found.

Weather at Dubbo City Regional Airport


Time (UTC)DescriptionTempratureWindCloud coverageVisibilityPressureHumidity
23-May-2024 21:00Overcast Clouds6°C4 mph, SE89%10000m1026hPa84%
24-May-2024 00:00Overcast Clouds11°C4 mph, E91%10000m1026hPa67%
24-May-2024 03:00Overcast Clouds19°C2 mph, NW100%10000m1024hPa43%
24-May-2024 06:00Overcast Clouds17°C2 mph, NW100%10000m1024hPa50%
24-May-2024 09:00Overcast Clouds13°C2 mph, S100%10000m1025hPa59%
24-May-2024 12:00Overcast Clouds12°C2 mph, SE100%10000m1026hPa63%
24-May-2024 15:00Overcast Clouds11°C7 mph, E100%10000m1026hPa65%
24-May-2024 18:00Overcast Clouds10°C7 mph, E100%10000m1025hPa89%
24-May-2024 21:00Overcast Clouds10°C7 mph, E99%10000m1026hPa95%
25-May-2024 00:00Overcast Clouds15°C7 mph, NE99%10000m1027hPa71%
25-May-2024 03:00Overcast Clouds19°C2 mph, N100%10000m1025hPa50%
25-May-2024 06:00Overcast Clouds18°C4 mph, W100%10000m1023hPa52%
25-May-2024 09:00Overcast Clouds13°C4 mph, S99%10000m1025hPa64%
25-May-2024 12:00Overcast Clouds12°C7 mph, E100%10000m1026hPa80%
25-May-2024 15:00Broken Clouds10°C7 mph, E76%10000m1026hPa94%
25-May-2024 18:00Scattered Clouds9°C7 mph, SE44%10000m1025hPa96%
25-May-2024 21:00Clear Sky9°C7 mph, SE3%10000m1026hPa96%
26-May-2024 00:00Clear Sky16°C4 mph, NE2%10000m1026hPa66%
26-May-2024 03:00Clear Sky20°C4 mph, W0%10000m1024hPa46%
26-May-2024 06:00Clear Sky19°C4 mph, W1%10000m1023hPa49%
26-May-2024 09:00Clear Sky13°C2 mph, SW1%10000m1024hPa66%
26-May-2024 12:00Clear Sky11°C2 mph, S0%10000m1025hPa71%
26-May-2024 15:00Clear Sky9°C2 mph, SE0%10000m1025hPa79%
26-May-2024 18:00Clear Sky8°C4 mph, SE0%10000m1025hPa85%
26-May-2024 21:00Clear Sky8°C4 mph, SE0%10000m1026hPa89%
27-May-2024 00:00Clear Sky15°C2 mph, S0%10000m1026hPa58%
27-May-2024 03:00Clear Sky19°C4 mph, SW0%10000m1024hPa37%
27-May-2024 06:00Clear Sky18°C4 mph, SW0%10000m1023hPa40%
27-May-2024 09:00Clear Sky11°C7 mph, S0%10000m1025hPa56%
27-May-2024 12:00Clear Sky9°C4 mph, SE0%10000m1026hPa61%
27-May-2024 15:00Clear Sky8°C4 mph, SE0%10000m1026hPa65%
27-May-2024 18:00Clear Sky7°C7 mph, SE0%10000m1026hPa67%
27-May-2024 21:00Clear Sky7°C7 mph, SE0%10000m1027hPa82%
28-May-2024 00:00Clear Sky16°C7 mph, E0%10000m1027hPa60%
28-May-2024 03:00Clear Sky20°C2 mph, NE0%10000m1024hPa40%
28-May-2024 06:00Clear Sky20°C0 mph, SE0%10000m1023hPa45%
28-May-2024 09:00Clear Sky13°C2 mph, SE0%10000m1025hPa61%
28-May-2024 12:00Clear Sky11°C4 mph, E0%10000m1026hPa69%
28-May-2024 15:00Clear Sky9°C4 mph, E0%10000m1026hPa81%
28-May-2024 18:00Clear Sky8°C4 mph, E0%10000m1025hPa87%